Saquarema, Brazil
Current Conditions -  °F | °C
As of 5:00 PM on Thursday 30 Oct 2014 (Local Time) from SBES Reporting Station
Few Clouds Few Clouds  
Wind Chill: 82°   Ceiling: Unl
Heat Index: 85°   Visibility: 6mi
Dew Point: 68°   Wind: 25mph
Humidity: 62%   Direction: 60°ENE
Pressure: 29.8"   Gusts: 37mph
Location:  22.93°S, 42.53°W
Report Text: SBES 301900Z 06022G32KT 9999 FEW030 28/20 Q1009
Loading
Personal Weather Stations






























Interactive Weather Map
Tropical Storm Tracking
New forecast layout! Learn more

10-Day Weather Forecast

Advertisements
Track Severe Weather on mobile